Terminal Aerodrome Forecast
Issued by NWS

Home | Current Version | Previous Version | Text Only | Print | Product List | Glossary On
Versions: 1 2 3 4 5 6 7 8 9 10 11 12 13 14 15
000
FTUS46 KMTR 281120
TAFOAK
TAF
KOAK 281120Z 2812/2918 VRB03KT P6SM SKC
     FM281800 29007KT P6SM SKC
     FM282100 29012KT P6SM SKC
     FM290300 29008KT P6SM SKC
     FM290900 VRB04KT P6SM FEW010=

USA.gov is the U.S. government's official web portal to all federal, state and local government web resources and services.